createdAt,value
2023-03-25T00:02:20.776Z,9.00
2023-03-25T00:07:04.529Z,9.00
2023-03-25T00:11:53.172Z,8.80
2023-03-25T00:16:39.896Z,8.70
2023-03-25T00:21:29.358Z,8.60
2023-03-25T00:26:16.018Z,8.50
2023-03-25T00:31:05.783Z,8.40
2023-03-25T00:35:59.133Z,8.50
2023-03-25T00:40:57.992Z,8.50
2023-03-25T00:45:44.742Z,8.40
2023-03-25T00:50:33.568Z,8.50
2023-03-25T00:55:20.148Z,8.70
2023-03-25T01:00:13.311Z,8.70
2023-03-25T01:04:57.706Z,8.70
2023-03-25T01:09:46.717Z,8.60
2023-03-25T01:14:30.521Z,8.60
2023-03-25T01:19:15.864Z,8.70
2023-03-25T01:24:05.787Z,8.70
2023-03-25T01:28:55.903Z,8.60
2023-03-25T01:33:39.929Z,8.60
2023-03-25T01:38:32.663Z,8.70
2023-03-25T01:43:20.108Z,8.70
2023-03-25T01:48:10.287Z,8.80
2023-03-25T01:52:53.932Z,8.80
2023-03-25T01:57:46.339Z,8.90
2023-03-25T02:02:40.950Z,8.90
2023-03-25T02:07:34.714Z,8.90
2023-03-25T02:12:18.350Z,9.00
2023-03-25T02:17:13.959Z,9.10
2023-03-25T02:22:59.841Z,9.00
2023-03-25T02:28:02.064Z,8.90
2023-03-25T02:33:21.634Z,8.90
2023-03-25T02:38:26.624Z,9.00
2023-03-25T02:43:33.408Z,9.00
2023-03-25T02:48:23.475Z,9.20
2023-03-25T02:53:11.659Z,9.00
2023-03-25T02:57:59.290Z,9.10
2023-03-25T03:02:46.460Z,8.80
2023-03-25T03:07:36.498Z,8.80
2023-03-25T03:12:36.784Z,8.60
2023-03-25T03:17:28.261Z,8.50
2023-03-25T03:22:25.967Z,8.40
2023-03-25T03:27:34.970Z,8.40
2023-03-25T03:32:36.489Z,8.40
2023-03-25T03:37:40.336Z,8.30
2023-03-25T03:42:32.197Z,8.20
2023-03-25T03:47:18.950Z,8.20
2023-03-25T03:52:18.079Z,8.30
2023-03-25T03:57:13.101Z,8.40
2023-03-25T04:02:01.285Z,8.60
2023-03-25T04:07:01.010Z,8.60
2023-03-25T04:12:02.285Z,8.70
2023-03-25T04:16:54.443Z,8.70
2023-03-25T04:21:41.612Z,8.60
2023-03-25T04:26:27.017Z,8.60
2023-03-25T04:31:20.148Z,8.70
2023-03-25T04:36:03.656Z,8.80
2023-03-25T04:40:52.402Z,8.90
2023-03-25T04:45:53.365Z,8.70
2023-03-25T04:50:45.744Z,8.70
2023-03-25T04:55:31.580Z,8.90
2023-03-25T05:00:22.208Z,8.90
2023-03-25T05:05:07.757Z,8.90
2023-03-25T05:09:54.975Z,8.70
2023-03-25T05:14:42.956Z,8.80
2023-03-25T05:19:35.247Z,8.80
2023-03-25T05:24:19.419Z,8.70
2023-03-25T05:29:09.441Z,8.70
2023-03-25T05:33:54.963Z,8.80
2023-03-25T05:38:48.267Z,8.80
2023-03-25T05:43:35.717Z,8.80
2023-03-25T05:48:20.497Z,8.80
2023-03-25T05:53:07.026Z,8.80
2023-03-25T05:57:58.854Z,8.70
2023-03-25T06:02:44.220Z,8.80
2023-03-25T06:07:32.433Z,8.70
2023-03-25T06:12:22.890Z,8.60
2023-03-25T06:17:06.956Z,8.50
2023-03-25T06:21:56.894Z,8.30
2023-03-25T06:26:45.422Z,8.10
2023-03-25T06:31:34.221Z,8.10
2023-03-25T06:36:20.515Z,8.20
2023-03-25T06:41:09.360Z,8.40
2023-03-25T06:45:59.446Z,8.70
2023-03-25T06:50:58.938Z,8.90
2023-03-25T06:55:47.114Z,9.20
2023-03-25T07:00:39.703Z,9.30
2023-03-25T07:05:24.615Z,9.50
2023-03-25T07:10:16.428Z,9.60
2023-03-25T07:15:01.870Z,9.60
2023-03-25T07:19:47.754Z,9.80
2023-03-25T07:24:37.085Z,10.00
2023-03-25T07:29:23.546Z,10.60
2023-03-25T07:34:11.250Z,11.10
2023-03-25T07:39:00.612Z,11.10
2023-03-25T07:43:48.634Z,10.80
2023-03-25T07:48:53.717Z,10.40
2023-03-25T07:53:46.481Z,9.90
2023-03-25T07:58:45.516Z,9.90
2023-03-25T08:03:34.855Z,9.70
2023-03-25T08:08:21.583Z,9.90
2023-03-25T08:13:07.359Z,10.10
2023-03-25T08:18:00.876Z,10.00
2023-03-25T08:22:49.232Z,9.70
2023-03-25T08:27:33.130Z,9.50
2023-03-25T08:32:19.961Z,9.70
2023-03-25T08:37:12.670Z,9.30
2023-03-25T08:41:59.164Z,8.70
2023-03-25T08:46:44.637Z,8.40
2023-03-25T08:51:32.225Z,8.30
2023-03-25T08:56:24.725Z,8.20
2023-03-25T09:01:09.947Z,8.10
2023-03-25T09:05:55.964Z,8.00
2023-03-25T09:10:45.567Z,7.90
2023-03-25T09:15:32.333Z,8.00
2023-03-25T09:20:20.812Z,7.80
2023-03-25T09:25:08.114Z,7.80
2023-03-25T09:29:59.239Z,7.70
2023-03-25T09:34:46.017Z,7.40
2023-03-25T09:39:34.448Z,7.40
2023-03-25T09:44:38.278Z,7.70
2023-03-25T09:49:38.670Z,7.90
2023-03-25T09:54:31.015Z,8.20
2023-03-25T09:59:21.052Z,8.40
2023-03-25T10:04:50.523Z,9.10
2023-03-25T10:09:55.643Z,10.00
2023-03-25T10:15:03.350Z,10.50
2023-03-25T10:20:06.915Z,10.10
2023-03-25T10:24:57.028Z,10.40
2023-03-25T10:29:44.434Z,11.10
2023-03-25T10:34:42.927Z,11.10
2023-03-25T10:39:37.416Z,11.70
2023-03-25T10:44:23.884Z,12.00
2023-03-25T10:49:09.069Z,11.40
2023-03-25T10:53:56.968Z,12.20
2023-03-25T10:58:46.650Z,12.10
2023-03-25T11:03:35.601Z,13.00
2023-03-25T11:08:25.496Z,13.40
2023-03-25T11:13:25.820Z,13.50
2023-03-25T11:18:17.093Z,13.10
2023-03-25T11:23:14.418Z,13.30
2023-03-25T11:28:24.849Z,13.10
2023-03-25T11:33:38.422Z,11.80
2023-03-25T11:38:32.870Z,10.30
2023-03-25T11:43:22.560Z,10.20
2023-03-25T11:48:41.992Z,10.40
2023-03-25T11:53:28.404Z,10.80
2023-03-25T11:58:18.545Z,11.20
2023-03-25T12:03:23.003Z,11.70
2023-03-25T12:09:04.535Z,12.40
2023-03-25T12:14:10.552Z,12.50
2023-03-25T12:19:17.359Z,12.80
2023-03-25T12:24:25.784Z,12.90
2023-03-25T12:29:43.066Z,12.60
2023-03-25T12:34:49.436Z,12.50
2023-03-25T12:39:53.556Z,12.50
2023-03-25T12:45:06.717Z,12.40
2023-03-25T12:50:23.930Z,11.40
2023-03-25T12:55:32.056Z,9.60
2023-03-25T13:00:50.751Z,9.60
2023-03-25T13:05:46.209Z,10.40
2023-03-25T13:10:47.368Z,10.30
2023-03-25T13:15:46.878Z,10.40
2023-03-25T13:20:51.762Z,10.80
2023-03-25T13:25:57.554Z,11.40
2023-03-25T13:30:48.614Z,11.60
2023-03-25T13:35:47.839Z,11.80
2023-03-25T13:40:53.306Z,11.80
2023-03-25T13:45:56.301Z,12.00
2023-03-25T13:50:43.512Z,12.10
2023-03-25T13:55:35.137Z,12.60
2023-03-25T14:00:50.263Z,13.10
2023-03-25T14:05:54.523Z,13.10
2023-03-25T14:11:02.145Z,13.40
2023-03-25T14:16:06.300Z,13.30
2023-03-25T14:20:51.846Z,13.30
2023-03-25T14:25:41.601Z,12.90
2023-03-25T14:30:29.772Z,12.70
2023-03-25T14:36:08.008Z,12.50
2023-03-25T14:41:05.268Z,12.00
2023-03-25T14:46:26.797Z,9.30
2023-03-25T14:51:37.008Z,7.10
2023-03-25T14:56:26.864Z,6.70
2023-03-25T15:01:37.560Z,6.50
2023-03-25T15:06:33.873Z,6.50
2023-03-25T15:11:20.214Z,6.50
2023-03-25T15:16:07.377Z,6.80
2023-03-25T15:20:53.971Z,7.20
2023-03-25T15:25:39.621Z,7.80
2023-03-25T15:30:58.257Z,8.50
2023-03-25T15:36:16.654Z,9.10
2023-03-25T15:41:46.093Z,9.40
2023-03-25T15:47:20.878Z,9.10
2023-03-25T15:52:24.859Z,8.90
2023-03-25T15:57:38.338Z,9.10
2023-03-25T16:02:47.947Z,8.90
2023-03-25T16:07:35.468Z,8.60
2023-03-25T16:12:24.214Z,8.70
2023-03-25T16:17:08.991Z,8.80
2023-03-25T16:21:56.539Z,8.90
2023-03-25T16:26:46.617Z,8.90
2023-03-25T16:31:46.472Z,8.90
2023-03-25T16:36:36.373Z,8.80
2023-03-25T16:41:28.940Z,8.70
2023-03-25T16:46:16.074Z,8.50
2023-03-25T16:51:04.327Z,8.40
2023-03-25T16:55:51.028Z,8.30
2023-03-25T17:00:50.906Z,8.10
2023-03-25T17:06:13.231Z,8.00
2023-03-25T17:11:02.099Z,7.90
2023-03-25T17:15:52.351Z,7.80
2023-03-25T17:20:52.398Z,7.60
2023-03-25T17:26:02.649Z,7.60
2023-03-25T17:31:02.219Z,7.50
2023-03-25T17:35:54.259Z,7.30
2023-03-25T17:40:40.313Z,7.20
2023-03-25T17:45:27.083Z,7.10
2023-03-25T17:50:18.721Z,7.10
2023-03-25T17:55:22.744Z,7.10
2023-03-25T18:00:22.240Z,7.00
2023-03-25T18:05:11.882Z,7.00
2023-03-25T18:09:55.747Z,7.00
2023-03-25T18:14:44.523Z,7.00
2023-03-25T18:19:33.402Z,6.90
2023-03-25T18:31:17.380Z,7.10
2023-03-25T18:36:06.772Z,7.20
2023-03-25T18:40:53.885Z,7.40
2023-03-25T18:45:39.934Z,7.60
2023-03-25T18:50:32.602Z,7.70
2023-03-25T18:55:17.897Z,7.70
2023-03-25T19:00:24.858Z,7.80
2023-03-25T19:05:10.528Z,8.00
2023-03-25T19:09:57.370Z,8.10
2023-03-25T19:14:47.635Z,8.00
2023-03-25T19:19:31.440Z,7.80
2023-03-25T19:24:50.896Z,7.80
2023-03-25T19:30:01.383Z,7.80
2023-03-25T19:34:46.622Z,7.80
2023-03-25T19:39:33.635Z,7.90
2023-03-25T19:44:20.782Z,8.00
2023-03-25T19:49:09.589Z,8.20
2023-03-25T19:53:59.680Z,8.20
2023-03-25T19:58:43.948Z,8.20
2023-03-25T20:03:53.018Z,7.70
2023-03-25T20:08:39.545Z,7.10
2023-03-25T20:13:23.674Z,7.20
2023-03-25T20:24:10.150Z,7.20
2023-03-25T20:29:43.950Z,7.00
2023-03-25T20:41:26.967Z,6.80
2023-03-25T20:46:26.833Z,6.80
2023-03-25T20:51:49.744Z,6.70
2023-03-25T20:56:38.515Z,6.60
2023-03-25T21:01:22.378Z,6.60
2023-03-25T21:06:28.483Z,6.60
2023-03-25T21:11:19.687Z,6.70
2023-03-25T21:16:05.954Z,6.60
2023-03-25T21:20:53.036Z,6.70
2023-03-25T21:25:41.218Z,6.80
2023-03-25T21:30:27.903Z,6.70
2023-03-25T21:35:38.325Z,6.50
2023-03-25T21:40:22.883Z,6.80
2023-03-25T21:45:09.793Z,7.00
2023-03-25T21:49:56.831Z,7.20
2023-03-25T21:54:58.894Z,7.40
2023-03-25T21:59:49.597Z,7.40
2023-03-25T22:04:41.224Z,7.40
2023-03-25T22:09:25.729Z,7.50
2023-03-25T22:14:44.645Z,7.40
2023-03-25T22:25:07.018Z,7.50
2023-03-25T22:30:10.579Z,7.30
2023-03-25T22:35:05.845Z,7.30
2023-03-25T22:39:52.903Z,7.40
2023-03-25T22:44:36.831Z,7.50
2023-03-25T22:49:40.794Z,7.50
2023-03-25T22:54:40.856Z,7.40
2023-03-25T22:59:31.897Z,7.40
2023-03-25T23:04:24.011Z,7.50
2023-03-25T23:09:10.838Z,7.40
2023-03-25T23:13:59.094Z,7.40
2023-03-25T23:18:46.460Z,7.30
2023-03-25T23:23:33.350Z,7.20
2023-03-25T23:28:19.988Z,7.20
2023-03-25T23:33:09.606Z,7.00
2023-03-25T23:37:56.085Z,7.10
2023-03-25T23:42:47.696Z,7.20
2023-03-25T23:47:31.425Z,7.10
2023-03-25T23:52:21.560Z,7.10
2023-03-25T23:57:09.225Z,7.20
